メインページ
METAR-TAF:

METAR-TAF

空港 :

Caro, ミシガン州, アメリカ合衆国

緯度: 43-27-31N, 経度: 083-26-43W, 海抜: 214m

現時点の気象観測

当レポートは13分前の17:56(UTC)に作成
無風
気温 28°C
湿度 40%
気圧 1015 hPa
視程: 16.1km
晴天

METAR: KCFS 211756Z AUTO 00000KT 10SM CLR 28/13 A2997 RMK AO2 T02800126 10284 20222

時間: 14:09 (18:09 UTC)


TAF: 見つかりません

4,000以上の空港の気象観測と天気予報(METAR報とTAF報)

利用可能な観測所は地図上に黄色い丸と赤い丸で示す。

丸の上にカーソルを重ねると観測所名を参照できる。

次にクリックすると気象観測と天気予報を参照できる。

マップの切り替え:黒色「×」印の緑ボタンをクリックして拡大、「-」印の緑ボタンをクリックして縮小、緑色の三角印をクリックして隣りの地図に切り替え


METAR-TAF: